Página principal
METAR-TAF:

METAR-TAF

Aeroportos :

Aeroporto Internacional de Bagdad

Bagdá, Iraque

latitude: 33-15-45N, longitude: 44-14-04E, altura: 35 m

Observação actual do tempo

O boletim foi feito há 23 minutos, às 22:00 UTC
Vento 4 kt de su-sudeste
Temperatura 12°C
Humidade 88%
Pressão 1023 hPa
Visibilidade: 7000 m

METAR: ORBI 162200Z 16004KT 7000 NSC 12/10 Q1023 NOSIG

Hora: 01:23 (22:23 UTC)

Previsão

O boletim foi feito há 6 horas e 23 minutos, às 16:00 UTC
Previsão válida de 16 às 18 UTC a 17 às 18 UTC
Vento 12 kt de su-sudeste
Visibilidade: 6000 m
Poucas nuvensa uma altura de 2500 ft, Cumulonimbus.
Nuvens dispersasa uma altura de 3000 ft

TAF: ORBI 161600Z 1618/1718 16012KT 6000 -TSSHRA FEW025CB SCT030

Observações e previsões do tempo de mais de 4000 aeroportos (mensagens METAR e TAF).

As estações disponíveis são os pontos amarelos e vermelhos sobre o mapa.

Mova o rato sobre o mapa para ver o nome da estação.

Depois clique no ponto para visualizar as observações e previsões meteorológicas.

Para alterar o mapa : clique nos botões verdes com uma cruz preta para aumentar o zoom; no botão verde com uma pitada de zoom; ou nas setas verdes para mapas adjacentes.


METAR-TAF: